Time;durP1;ratioP1;P1;durP2;ratioP2;P2;SDS_P1;SDS_P2;PMS_P1;PMS_P2;Temp;Humidity;BMP_temperature;BMP_pressure;BME280_temperature;BME280_humidity;BME280_pressure;Samples;Min_cycle;Max_cycle;Signal;HPM_P1;HPM_P2
2023/09/03 00:02:41;;;;;;;8.90;6.28;;;15.40;99.90;;;;;;6168360;23;20029;-92
2023/09/03 00:05:29;;;;;;;11.48;6.43;;;15.30;99.90;;;;;;6188884;23;20068;-93
2023/09/03 00:08:17;;;;;;;9.43;5.85;;;15.20;99.90;;;;;;6191693;23;20025;-94
2023/09/03 00:11:07;;;;;;;11.10;6.15;;;15.10;99.90;;;;;;6172275;23;20028;-92
2023/09/03 00:13:56;;;;;;;9.55;5.85;;;15.10;99.90;;;;;;6173340;23;20028;-93
2023/09/03 00:16:44;;;;;;;10.52;5.93;;;15.00;99.90;;;;;;6173903;23;20056;-93
2023/09/03 00:19:34;;;;;;;11.27;6.45;;;15.00;99.90;;;;;;6191107;23;20029;-94
2023/09/03 00:22:21;;;;;;;8.30;6.28;;;15.00;99.90;;;;;;6187911;23;20498;-94
2023/09/03 00:25:09;;;;;;;11.55;7.05;;;15.00;99.90;;;;;;6169722;23;20043;-94
2023/09/03 00:27:56;;;;;;;8.98;5.82;;;14.90;99.90;;;;;;6168283;23;20128;-93
2023/09/03 00:30:45;;;;;;;10.82;5.72;;;15.00;99.90;;;;;;6168409;23;20029;-94
2023/09/03 00:33:32;;;;;;;9.45;5.82;;;15.10;99.90;;;;;;6188379;23;20025;-94
2023/09/03 00:36:20;;;;;;;10.43;5.75;;;15.00;99.90;;;;;;6168252;23;20379;-93
2023/09/03 00:39:09;;;;;;;10.43;5.60;;;14.90;99.90;;;;;;6188606;23;20021;-92
2023/09/03 00:41:57;;;;;;;10.57;5.80;;;14.90;99.90;;;;;;6167151;23;20076;-94
2023/09/03 00:44:47;;;;;;;8.07;5.20;;;15.00;99.90;;;;;;6187024;23;20033;-93
2023/09/03 00:47:35;;;;;;;12.13;6.25;;;15.00;99.90;;;;;;6167248;23;20032;-94
2023/09/03 00:50:22;;;;;;;12.13;5.75;;;15.00;99.90;;;;;;6198196;23;20036;-90
2023/09/03 00:53:30;;;;;;;9.95;6.32;;;15.00;99.90;;;;;;6204647;23;20021;-93
2023/09/03 00:56:18;;;;;;;9.25;6.38;;;14.90;99.90;;;;;;6193293;23;20052;-93
2023/09/03 00:59:06;;;;;;;8.70;5.85;;;14.90;99.90;;;;;;6195467;23;20036;-92
2023/09/03 01:01:54;;;;;;;9.98;5.45;;;15.00;99.90;;;;;;6173420;23;20024;-92
2023/09/03 01:04:43;;;;;;;11.75;5.75;;;15.00;99.90;;;;;;6170327;23;20036;-94
2023/09/03 01:07:30;;;;;;;13.65;6.47;;;15.00;99.90;;;;;;6168608;23;20337;-92
2023/09/03 01:10:20;;;;;;;11.80;5.35;;;15.00;99.90;;;;;;6169566;23;20025;-95
2023/09/03 01:13:37;;;;;;;8.70;5.57;;;15.00;99.90;;;;;;6167796;23;20049;-93
2023/09/03 01:16:43;;;;;;;10.10;5.20;;;15.00;99.90;;;;;;6167672;23;20031;-93
2023/09/03 01:20:14;;;;;;;9.10;5.80;;;14.90;99.90;;;;;;6191086;23;20478;-93
2023/09/03 01:23:21;;;;;;;11.25;5.65;;;14.90;99.90;;;;;;6190210;23;20029;-92
2023/09/03 01:26:31;;;;;;;7.50;5.35;;;14.80;99.90;;;;;;6170562;23;20336;-93
2023/09/03 01:29:20;;;;;;;9.15;5.95;;;14.80;99.90;;;;;;6192691;23;20075;-92
2023/09/03 01:32:09;;;;;;;8.50;6.05;;;14.70;99.90;;;;;;6169508;23;20324;-94
2023/09/03 01:35:00;;;;;;;9.43;6.05;;;14.80;99.90;;;;;;6167797;23;20408;-94
2023/09/03 01:37:47;;;;;;;11.95;6.47;;;14.80;99.90;;;;;;6167702;23;20021;-92
2023/09/03 01:40:39;;;;;;;9.63;6.63;;;14.80;99.90;;;;;;6151145;23;20104;-94
2023/09/03 01:43:26;;;;;;;8.13;5.90;;;14.70;99.90;;;;;;6191210;23;20056;-93
2023/09/03 01:46:34;;;;;;;;;;;;;;;;;;;;;
2023/09/03 01:49:40;;;;;;;10.07;5.80;;;14.70;99.90;;;;;;6191244;23;20025;-90
2023/09/03 01:52:38;;;;;;;10.02;6.40;;;14.70;99.90;;;;;;6169087;23;20029;-91
2023/09/03 01:55:33;;;;;;;14.48;6.75;;;14.60;99.90;;;;;;6167847;23;20054;-94
2023/09/03 01:58:26;;;;;;;11.07;5.90;;;14.70;99.90;;;;;;6168757;23;20025;-94
2023/09/03 02:01:15;;;;;;;10.38;6.40;;;14.70;99.90;;;;;;6190151;23;20072;-94
2023/09/03 02:04:11;;;;;;;11.82;6.65;;;14.70;99.90;;;;;;6169000;23;20446;-92
2023/09/03 02:06:59;;;;;;;10.77;6.18;;;14.70;99.90;;;;;;6189774;23;20029;-92
2023/09/03 02:09:54;;;;;;;9.20;6.57;;;14.60;99.90;;;;;;6166498;23;20040;-95
2023/09/03 02:12:44;;;;;;;7.88;5.72;;;14.50;99.90;;;;;;6188902;23;20029;-94
2023/09/03 02:15:32;;;;;;;8.10;6.10;;;14.40;99.90;;;;;;6169589;23;20080;-95
2023/09/03 02:18:19;;;;;;;10.52;6.68;;;14.40;99.90;;;;;;6188498;23;20036;-93
2023/09/03 02:21:07;;;;;;;10.60;6.07;;;14.40;99.90;;;;;;6187875;23;20415;-94
2023/09/03 02:23:56;;;;;;;9.73;6.90;;;14.50;99.90;;;;;;6166978;23;20087;-94
2023/09/03 02:26:46;;;;;;;12.20;7.38;;;14.60;99.90;;;;;;6188314;23;20172;-92
2023/09/03 02:29:44;;;;;;;11.20;7.88;;;14.60;99.90;;;;;;6169514;23;20024;-94
2023/09/03 02:32:33;;;;;;;10.00;6.82;;;14.60;99.90;;;;;;6191136;23;20040;-94
2023/09/03 02:35:23;;;;;;;12.55;6.90;;;14.60;99.90;;;;;;6167421;23;20321;-93
2023/09/03 02:38:37;;;;;;;9.85;7.18;;;14.60;99.90;;;;;;6174286;23;20030;-92
2023/09/03 02:41:32;;;;;;;8.73;6.15;;;14.60;99.90;;;;;;6190930;23;20021;-93
2023/09/03 02:44:57;;;;;;;12.40;7.18;;;14.60;99.90;;;;;;6187114;23;20033;-93
2023/09/03 02:47:46;;;;;;;8.18;7.20;;;14.60;99.90;;;;;;6188279;23;20032;-93
2023/09/03 02:50:56;;;;;;;12.65;7.07;;;14.70;99.90;;;;;;6188328;23;20100;-93
2023/09/03 02:53:51;;;;;;;10.40;7.47;;;14.60;99.90;;;;;;6187996;23;20127;-94
2023/09/03 02:56:39;;;;;;;10.60;7.45;;;14.60;99.90;;;;;;6189405;23;20683;-94
2023/09/03 02:59:32;;;;;;;12.52;7.35;;;14.60;99.90;;;;;;6166357;23;20021;-94
2023/09/03 03:02:20;;;;;;;10.43;7.10;;;14.50;99.90;;;;;;6188990;23;20036;-94
2023/09/03 03:05:12;;;;;;;13.95;6.95;;;14.40;99.90;;;;;;6188785;23;20035;-93
2023/09/03 03:08:02;;;;;;;12.70;6.75;;;14.40;99.90;;;;;;6188894;23;20380;-93
2023/09/03 03:10:50;;;;;;;10.88;7.35;;;14.40;99.90;;;;;;6186606;23;20029;-92
2023/09/03 03:13:42;;;;;;;12.95;6.85;;;14.30;99.90;;;;;;6190554;23;20029;-93
2023/09/03 03:16:35;;;;;;;10.00;6.30;;;14.20;99.90;;;;;;6187399;23;20068;-93
2023/09/03 03:19:22;;;;;;;11.30;5.95;;;14.00;99.90;;;;;;6168924;23;20237;-94
2023/09/03 03:22:13;;;;;;;12.60;6.53;;;14.10;99.90;;;;;;6189136;23;20021;-93
2023/09/03 03:25:24;;;;;;;10.82;7.20;;;14.10;99.90;;;;;;6170149;23;20028;-92
2023/09/03 03:28:33;;;;;;;11.40;7.90;;;14.20;99.90;;;;;;6185671;23;20101;-93
2023/09/03 03:31:24;;;;;;;13.07;8.48;;;14.30;99.90;;;;;;6178087;23;20029;-93
2023/09/03 03:34:14;;;;;;;11.27;7.68;;;14.30;99.90;;;;;;6151717;23;20078;-95
2023/09/03 03:37:03;;;;;;;10.20;8.02;;;14.30;99.90;;;;;;6188882;23;20454;-93
2023/09/03 03:39:51;;;;;;;12.73;8.00;;;14.40;99.90;;;;;;6167692;23;20040;-93
2023/09/03 03:42:39;;;;;;;12.07;7.00;;;14.40;99.90;;;;;;6147456;23;20056;-93
2023/09/03 03:45:26;;;;;;;14.65;8.52;;;14.30;99.90;;;;;;6169335;23;20077;-94
2023/09/03 03:48:19;;;;;;;12.63;8.15;;;14.40;99.90;;;;;;6167913;23;20033;-94
2023/09/03 03:51:11;;;;;;;9.82;7.45;;;14.40;99.90;;;;;;6188788;23;20025;-94
2023/09/03 03:54:04;;;;;;;12.50;7.47;;;14.50;99.90;;;;;;6168120;23;20104;-95
2023/09/03 03:56:54;;;;;;;12.35;7.85;;;14.40;99.90;;;;;;6188157;23;20025;-94
2023/09/03 03:59:41;;;;;;;9.52;7.72;;;14.30;99.90;;;;;;6187924;23;20029;-94
2023/09/03 04:03:04;;;;;;;;;;;;;;;;;;;;;
2023/09/03 04:06:15;;;;;;;13.05;8.20;;;14.40;99.90;;;;;;6174960;23;20052;-92
2023/09/03 04:09:02;;;;;;;11.63;8.38;;;14.30;99.90;;;;;;6169998;23;20036;-93
2023/09/03 04:11:51;;;;;;;13.07;8.35;;;14.30;99.90;;;;;;6170200;23;20036;-92
2023/09/03 04:14:39;;;;;;;11.38;8.40;;;14.20;99.90;;;;;;6187530;23;20025;-94
2023/09/03 04:17:27;;;;;;;11.98;8.50;;;14.10;99.90;;;;;;6147854;23;20049;-94
2023/09/03 04:20:17;;;;;;;12.68;8.30;;;14.20;99.90;;;;;;6190552;23;20031;-94
2023/09/03 04:23:04;;;;;;;15.90;7.88;;;14.30;99.90;;;;;;6187612;23;20028;-94
2023/09/03 04:25:53;;;;;;;14.55;7.93;;;14.20;99.90;;;;;;6171484;23;20088;-94
2023/09/03 04:28:41;;;;;;;10.10;7.75;;;14.20;99.90;;;;;;6191692;23;20057;-93
2023/09/03 04:31:40;;;;;;;18.95;8.57;;;14.20;99.90;;;;;;6189900;23;20017;-92
2023/09/03 04:34:28;;;;;;;15.38;8.48;;;14.30;99.90;;;;;;6189310;23;20033;-93
2023/09/03 04:37:16;;;;;;;9.98;7.40;;;14.40;99.90;;;;;;6169417;23;20124;-93
2023/09/03 04:40:03;;;;;;;9.35;7.53;;;14.40;99.90;;;;;;6169644;23;20021;-94
2023/09/03 04:42:51;;;;;;;10.55;8.00;;;14.40;99.90;;;;;;6170229;23;20583;-93
2023/09/03 04:45:47;;;;;;;10.23;7.63;;;14.30;99.90;;;;;;6189103;23;20056;-95
2023/09/03 04:48:40;;;;;;;12.45;8.15;;;14.20;99.90;;;;;;6170341;23;20021;-94
2023/09/03 04:51:30;;;;;;;15.98;7.45;;;14.10;99.90;;;;;;6171254;23;20096;-93
2023/09/03 04:54:17;;;;;;;10.07;7.38;;;14.10;99.90;;;;;;6172000;23;20419;-93
2023/09/03 04:57:12;;;;;;;9.20;6.50;;;14.10;99.90;;;;;;6192973;23;20048;-95
2023/09/03 05:00:04;;;;;;;10.50;7.30;;;14.00;99.90;;;;;;6172089;23;20025;-94
2023/09/03 05:02:56;;;;;;;13.35;8.10;;;14.00;99.90;;;;;;6170084;23;20463;-94
2023/09/03 05:05:44;;;;;;;9.52;7.60;;;14.00;99.90;;;;;;6169091;23;20049;-93
2023/09/03 05:08:32;;;;;;;12.63;7.82;;;14.00;99.90;;;;;;6169167;23;20367;-94
2023/09/03 05:11:27;;;;;;;14.85;7.82;;;14.10;99.90;;;;;;6189798;23;20029;-93
2023/09/03 05:14:18;;;;;;;15.35;7.80;;;14.10;99.90;;;;;;6171034;23;20021;-93
2023/09/03 05:17:05;;;;;;;12.23;7.78;;;14.10;99.90;;;;;;6190519;23;20837;-93
2023/09/03 05:19:53;;;;;;;12.52;8.18;;;14.10;99.90;;;;;;6169857;23;20021;-93
2023/09/03 05:22:40;;;;;;;13.68;8.45;;;14.10;99.90;;;;;;6170569;23;20056;-93
2023/09/03 05:25:28;;;;;;;14.93;8.70;;;14.10;99.90;;;;;;6191959;23;20025;-92
2023/09/03 05:28:17;;;;;;;14.93;8.15;;;14.20;99.90;;;;;;6192396;23;20029;-93
2023/09/03 05:31:05;;;;;;;11.77;8.23;;;14.30;99.90;;;;;;6189779;23;20108;-92
2023/09/03 05:34:10;;;;;;;;;;;;;;;;;;;;;
2023/09/03 05:37:08;;;;;;;14.23;8.05;;;14.50;99.90;;;;;;6188089;23;20024;-93
2023/09/03 05:39:57;;;;;;;12.18;8.77;;;14.50;99.90;;;;;;6187981;23;20025;-92
2023/09/03 05:42:45;;;;;;;11.93;8.38;;;14.50;99.90;;;;;;6189648;23;20448;-92
2023/09/03 05:45:32;;;;;;;12.82;8.25;;;14.60;99.90;;;;;;6189758;23;20431;-92
2023/09/03 05:48:22;;;;;;;11.13;8.18;;;14.60;99.90;;;;;;6188744;23;20024;-90
2023/09/03 05:51:09;;;;;;;14.35;8.30;;;14.70;99.90;;;;;;6188239;23;20035;-92
2023/09/03 05:53:59;;;;;;;11.02;7.97;;;14.70;99.90;;;;;;6166397;23;20032;-88
2023/09/03 05:56:46;;;;;;;12.73;7.13;;;14.80;99.90;;;;;;6188584;23;20025;-92
2023/09/03 05:59:35;;;;;;;11.30;7.18;;;14.80;99.90;;;;;;6166526;23;20020;-91
2023/09/03 06:02:22;;;;;;;10.13;7.22;;;14.80;99.90;;;;;;6189523;23;20017;-91
2023/09/03 06:05:10;;;;;;;10.02;6.25;;;14.90;99.90;;;;;;6168043;23;20048;-93
2023/09/03 06:08:00;;;;;;;9.85;6.25;;;14.90;99.90;;;;;;6169551;23;20085;-91
2023/09/03 06:10:49;;;;;;;9.75;6.63;;;15.00;99.90;;;;;;6197270;23;20032;-90
2023/09/03 06:13:41;;;;;;;8.45;6.68;;;15.10;99.90;;;;;;6193530;23;20037;-88
2023/09/03 06:16:29;;;;;;;11.10;6.10;;;15.10;99.90;;;;;;6186210;23;20024;-91
2023/09/03 06:19:16;;;;;;;8.68;5.88;;;15.30;99.90;;;;;;6189477;23;20021;-91
2023/09/03 06:22:03;;;;;;;9.82;6.38;;;15.40;99.90;;;;;;6178775;23;20067;-92
2023/09/03 06:24:51;;;;;;;8.13;5.68;;;15.60;99.90;;;;;;6194244;23;20025;-93
2023/09/03 06:27:38;;;;;;;5.97;5.00;;;15.70;99.90;;;;;;6191352;23;20052;-91
2023/09/03 06:30:25;;;;;;;9.30;5.72;;;15.90;99.90;;;;;;6169980;23;20024;-93
2023/09/03 06:33:13;;;;;;;6.25;4.97;;;16.20;99.90;;;;;;6167525;23;20021;-92
2023/09/03 06:36:00;;;;;;;14.95;5.22;;;16.40;99.90;;;;;;6188256;23;20057;-92
2023/09/03 06:38:47;;;;;;;7.10;4.75;;;16.50;99.90;;;;;;6190431;23;20025;-90
2023/09/03 06:41:35;;;;;;;7.88;4.45;;;16.70;99.90;;;;;;6170511;23;20067;-93
2023/09/03 06:44:23;;;;;;;6.28;3.80;;;17.00;99.90;;;;;;6187925;23;20029;-91
2023/09/03 06:47:10;;;;;;;4.22;3.80;;;17.20;99.90;;;;;;6187959;23;20029;-93
2023/09/03 06:49:57;;;;;;;4.90;3.75;;;17.40;99.90;;;;;;6189360;23;20091;-93
2023/09/03 06:52:44;;;;;;;6.03;3.70;;;17.60;99.90;;;;;;6188686;23;20033;-94
2023/09/03 06:55:32;;;;;;;7.05;4.50;;;17.80;99.90;;;;;;6188184;23;20039;-91
2023/09/03 06:58:21;;;;;;;7.35;4.10;;;18.00;99.90;;;;;;6164833;23;20047;-93
2023/09/03 07:01:09;;;;;;;6.30;3.75;;;18.20;99.90;;;;;;6189628;23;20144;-93
2023/09/03 07:03:57;;;;;;;4.50;3.65;;;18.20;99.90;;;;;;6184617;23;20096;-90
2023/09/03 07:06:44;;;;;;;4.43;3.50;;;18.20;99.90;;;;;;6190225;23;20328;-93
2023/09/03 07:09:32;;;;;;;3.90;3.20;;;18.20;99.90;;;;;;6194532;23;20456;-93
2023/09/03 07:12:20;;;;;;;4.18;3.08;;;18.20;99.90;;;;;;6199874;23;20029;-89
2023/09/03 07:15:13;;;;;;;5.45;3.47;;;18.40;99.90;;;;;;6198290;23;20083;-89
2023/09/03 07:18:00;;;;;;;5.88;3.42;;;18.50;1.00;;;;;;6197385;23;20025;-91
2023/09/03 07:20:48;;;;;;;6.53;4.05;;;18.70;99.90;;;;;;6183239;23;20060;-89
2023/09/03 07:23:38;;;;;;;5.50;3.78;;;18.90;29.50;;;;;;6181116;23;20021;-93
2023/09/03 07:26:30;;;;;;;7.13;3.50;;;18.90;29.60;;;;;;6203533;23;20024;-92
2023/09/03 07:29:18;;;;;;;7.43;3.13;;;19.00;99.90;;;;;;6207602;23;20054;-92
2023/09/03 07:32:08;;;;;;;5.30;3.35;;;19.00;99.90;;;;;;6205831;23;20399;-93
2023/09/03 07:34:55;;;;;;;3.63;3.10;;;18.90;99.90;;;;;;6184628;23;20020;-92
2023/09/03 07:37:43;;;;;;;5.63;3.33;;;18.90;99.90;;;;;;6173397;23;20056;-91
2023/09/03 07:40:30;;;;;;;5.55;3.08;;;19.00;1.00;;;;;;6165729;23;20022;-94
2023/09/03 07:43:56;;;;;;;4.88;3.10;;;19.10;1.00;;;;;;6167132;23;20021;-93
2023/09/03 07:46:43;;;;;;;6.32;3.33;;;19.20;99.90;;;;;;6165483;23;20029;-92
2023/09/03 07:49:31;;;;;;;4.28;3.03;;;19.30;99.90;;;;;;6167667;23;20025;-91
2023/09/03 07:52:19;;;;;;;4.68;3.00;;;19.60;99.90;;;;;;6166291;23;20431;-93
2023/09/03 07:55:11;;;;;;;4.30;3.05;;;19.70;99.90;;;;;;6187780;23;20360;-93
2023/09/03 07:57:59;;;;;;;3.97;3.20;;;19.80;99.90;;;;;;6166798;23;20040;-93
2023/09/03 08:00:47;;;;;;;3.22;2.80;;;20.00;99.90;;;;;;6200952;23;20021;-93
2023/09/03 08:03:35;;;;;;;3.78;2.60;;;20.30;1.00;;;;;;6170492;23;20431;-90
2023/09/03 08:06:22;;;;;;;5.10;2.97;;;20.60;99.90;;;;;;6192521;23;20385;-89
2023/09/03 08:09:12;;;;;;;7.60;2.50;;;20.90;1.00;;;;;;6188672;23;20032;-90
2023/09/03 08:12:02;;;;;;;3.03;2.10;;;21.40;99.90;;;;;;6169450;23;20029;-90
2023/09/03 08:14:50;;;;;;;4.25;2.20;;;21.90;99.90;;;;;;6167391;23;20029;-90
2023/09/03 08:17:38;;;;;;;3.38;2.08;;;22.40;99.90;;;;;;6171375;23;20324;-90
2023/09/03 08:20:25;;;;;;;4.15;2.20;;;22.70;99.90;;;;;;6189472;23;20083;-90
2023/09/03 08:23:13;;;;;;;4.00;2.30;;;22.90;99.90;;;;;;6191726;23;20384;-93
2023/09/03 08:26:01;;;;;;;4.38;2.28;;;23.30;42.70;;;;;;6170830;23;20029;-92
2023/09/03 08:28:50;;;;;;;4.07;1.95;;;23.90;1.00;;;;;;6171734;23;20053;-91
2023/09/03 08:31:37;;;;;;;3.88;1.95;;;24.60;1.00;;;;;;6170593;23;20029;-90
2023/09/03 08:34:25;;;;;;;3.75;1.85;;;25.40;99.90;;;;;;6192313;23;20029;-92
2023/09/03 08:37:12;;;;;;;2.42;2.00;;;26.10;99.90;;;;;;6170988;23;20025;-92
2023/09/03 08:40:03;;;;;;;2.15;1.80;;;26.20;99.90;;;;;;6168533;23;20088;-90
2023/09/03 08:42:53;;;;;;;5.50;2.00;;;26.30;72.20;;;;;;6171144;23;20041;-90
2023/09/03 08:46:03;;;;;;;3.15;1.67;;;26.80;1.00;;;;;;6189944;23;20039;-91
2023/09/03 08:48:52;;;;;;;4.68;2.10;;;27.30;1.00;;;;;;6171442;23;20155;-91
2023/09/03 08:51:40;;;;;;;7.97;2.10;;;28.20;1.00;;;;;;6167558;23;20029;-90
2023/09/03 08:54:28;;;;;;;5.70;1.60;;;28.70;99.90;;;;;;6169839;23;20048;-90
2023/09/03 08:57:15;;;;;;;3.15;1.80;;;29.00;99.90;;;;;;6188646;23;20020;-90
2023/09/03 09:00:07;;;;;;;6.30;2.60;;;29.60;99.90;;;;;;6170672;23;20103;-92
2023/09/03 09:02:59;;;;;;;2.58;1.70;;;30.00;99.90;;;;;;6170216;23;20021;-92
2023/09/03 09:05:48;;;;;;;4.03;1.85;;;30.60;99.90;;;;;;6187592;23;20056;-91
2023/09/03 09:08:38;;;;;;;1.90;1.60;;;30.20;99.90;;;;;;6187961;23;20120;-92
2023/09/03 09:11:41;;;;;;;3.22;1.88;;;29.90;99.90;;;;;;6168892;23;20420;-89
2023/09/03 09:14:38;;;;;;;3.53;1.90;;;30.00;99.90;;;;;;6190910;23;20025;-92
2023/09/03 09:17:28;;;;;;;2.88;1.83;;;30.40;99.90;;;;;;6168900;23;20106;-92
2023/09/03 09:20:19;;;;;;;4.07;1.90;;;30.60;99.90;;;;;;6190812;23;20021;-91
2023/09/03 09:23:08;;;;;;;2.97;1.70;;;31.00;99.90;;;;;;6190862;23;20025;-90
2023/09/03 09:25:55;;;;;;;3.90;1.25;;;31.10;99.90;;;;;;6172805;23;20647;-90
2023/09/03 09:28:57;;;;;;;2.22;1.40;;;31.40;99.90;;;;;;6174778;23;20114;-90
2023/09/03 09:31:45;;;;;;;3.03;1.60;;;30.60;99.90;;;;;;6173271;23;20035;-90
2023/09/03 09:34:42;;;;;;;3.00;1.75;;;30.80;99.90;;;;;;6195507;23;20040;-90
2023/09/03 09:37:41;;;;;;;3.05;1.77;;;30.50;99.90;;;;;;6178714;23;20024;-89
2023/09/03 09:40:32;;;;;;;2.75;1.50;;;29.60;99.90;;;;;;6176526;23;20025;-90
2023/09/03 09:43:21;;;;;;;1.95;1.50;;;29.80;99.90;;;;;;6169947;23;20039;-88
2023/09/03 09:46:30;;;;;;;3.03;1.58;;;29.50;99.90;;;;;;6171827;23;20104;-92
2023/09/03 09:49:21;;;;;;;2.53;1.63;;;29.70;99.90;;;;;;6190537;23;20364;-93
2023/09/03 09:52:08;;;;;;;1.70;1.60;;;30.00;99.90;;;;;;6202781;23;20029;-91
2023/09/03 09:54:55;;;;;;;2.17;1.40;;;29.60;99.90;;;;;;6203857;23;20057;-89
2023/09/03 09:57:43;;;;;;;1.90;1.33;;;28.40;99.90;;;;;;6168176;23;20028;-90
2023/09/03 10:00:38;;;;;;;1.90;1.45;;;27.70;99.90;;;;;;6169727;23;20025;-89
2023/09/03 10:03:41;;;;;;;2.78;1.10;;;28.00;99.90;;;;;;6187227;23;20060;-93
2023/09/03 10:06:29;;;;;;;2.20;1.15;;;28.60;99.90;;;;;;6187869;23;20036;-90
2023/09/03 10:09:22;;;;;;;3.35;1.17;;;29.20;99.90;;;;;;6167306;23;20123;-92
2023/09/03 10:12:15;;;;;;;1.67;1.30;;;29.30;99.90;;;;;;6188630;23;20029;-92
2023/09/03 10:15:02;;;;;;;1.77;1.00;;;29.00;99.90;;;;;;6167122;23;20057;-92
2023/09/03 10:17:53;;;;;;;0.80;0.80;;;28.60;99.90;;;;;;6189360;23;20297;-90
2023/09/03 10:20:41;;;;;;;1.23;0.90;;;28.30;99.90;;;;;;6189987;23;20021;-92
2023/09/03 10:23:35;;;;;;;2.03;1.02;;;29.00;99.90;;;;;;6166356;23;20104;-88
2023/09/03 10:26:27;;;;;;;2.47;0.85;;;29.40;99.90;;;;;;6146292;23;20028;-89
2023/09/03 10:29:19;;;;;;;1.38;0.80;;;29.30;99.90;;;;;;6189398;23;20080;-93
2023/09/03 10:32:12;;;;;;;0.85;0.70;;;29.60;99.90;;;;;;6165415;23;20359;-89
2023/09/03 10:35:10;;;;;;;1.95;0.80;;;29.40;99.90;;;;;;6188262;23;20032;-88
2023/09/03 10:37:57;;;;;;;2.20;1.00;;;29.20;99.90;;;;;;6188945;23;20025;-90
2023/09/03 10:40:44;;;;;;;2.33;1.00;;;29.60;99.90;;;;;;6165756;23;20451;-90
2023/09/03 10:43:32;;;;;;;1.13;0.98;;;30.00;99.90;;;;;;6190718;23;20072;-89
2023/09/03 10:46:22;;;;;;;1.65;1.17;;;29.50;99.90;;;;;;6190860;23;20758;-90
2023/09/03 10:49:11;;;;;;;;;;;29.60;99.90;;;;;;6187717;23;20029;-91
2023/09/03 10:51:59;;;;;;;1.02;0.90;;;30.10;99.90;;;;;;6167148;23;20014;-93
2023/09/03 10:55:11;;;;;;;0.80;0.80;;;31.00;99.90;;;;;;6192319;23;20029;-90
2023/09/03 10:58:21;;;;;;;2.40;1.25;;;31.30;99.20;;;;;;6190216;23;20028;-91
2023/09/03 11:01:21;;;;;;;3.03;0.80;;;31.00;94.40;;;;;;6200657;23;20029;-90
2023/09/03 11:04:08;;;;;;;0.85;0.75;;;31.20;94.20;;;;;;6175586;23;20072;-91
2023/09/03 11:07:24;;;;;;;1.95;0.82;;;30.60;82.70;;;;;;6199086;23;20035;-90
2023/09/03 11:10:21;;;;;;;1.77;0.80;;;30.50;82.70;;;;;;6194683;23;20340;-91
2023/09/03 11:13:10;;;;;;;2.38;0.77;;;30.80;77.00;;;;;;6176487;23;20031;-92
2023/09/03 11:16:12;;;;;;;2.28;0.90;;;31.60;80.70;;;;;;6193892;23;20042;-92
2023/09/03 11:19:04;;;;;;;1.98;1.20;;;32.00;71.80;;;;;;6170341;23;20025;-91
2023/09/03 11:21:51;;;;;;;1.50;0.90;;;32.60;64.80;;;;;;6168214;23;20029;-93
2023/09/03 11:24:46;;;;;;;0.75;0.60;;;32.60;62.80;;;;;;6173363;23;20331;-90
2023/09/03 11:27:33;;;;;;;0.95;0.70;;;32.80;39.30;;;;;;6191394;23;20021;-91
2023/09/03 11:30:24;;;;;;;0.73;0.70;;;33.40;22.80;;;;;;6152723;23;20028;-91
2023/09/03 11:33:25;;;;;;;1.15;0.60;;;32.90;14.50;;;;;;6190453;23;20036;-91
2023/09/03 11:36:15;;;;;;;0.70;0.70;;;32.30;14.30;;;;;;6167959;23;20025;-91
2023/09/03 11:39:15;;;;;;;0.60;0.50;;;32.10;9.00;;;;;;6188811;23;20297;-90
2023/09/03 11:42:02;;;;;;;0.82;0.50;;;32.60;4.60;;;;;;6168665;23;20027;-91
2023/09/03 11:44:50;;;;;;;2.45;0.73;;;32.90;8.60;;;;;;6168040;23;20020;-91
2023/09/03 11:47:39;;;;;;;2.33;1.00;;;32.80;2.40;;;;;;6189299;23;20188;-90
2023/09/03 11:50:31;;;;;;;2.35;0.77;;;33.50;1.00;;;;;;6192180;23;20091;-93
2023/09/03 11:53:19;;;;;;;1.20;0.80;;;33.80;1.00;;;;;;6167993;23;20439;-91
2023/09/03 11:56:14;;;;;;;1.00;0.82;;;33.10;1.00;;;;;;6169864;23;20328;-90
2023/09/03 11:59:04;;;;;;;1.48;0.90;;;32.40;1.00;;;;;;6191466;23;20028;-92
2023/09/03 12:01:53;;;;;;;1.10;0.70;;;31.40;1.00;;;;;;6189250;23;20112;-91
2023/09/03 12:04:40;;;;;;;2.50;0.80;;;31.10;1.00;;;;;;6188495;23;20044;-90
2023/09/03 12:07:31;;;;;;;1.75;0.98;;;31.40;1.00;;;;;;6192069;23;20548;-90
2023/09/03 12:10:21;;;;;;;1.48;0.88;;;32.00;1.00;;;;;;6168840;23;20107;-89
2023/09/03 12:13:08;;;;;;;1.13;0.80;;;32.10;1.00;;;;;;6195901;23;20025;-95
2023/09/03 12:16:06;;;;;;;0.93;0.80;;;32.30;1.00;;;;;;6182203;23;20084;-92
2023/09/03 12:19:01;;;;;;;1.27;1.00;;;33.30;1.00;;;;;;6170425;23;20029;-91
2023/09/03 12:21:54;;;;;;;1.40;1.00;;;33.40;1.00;;;;;;6169983;23;20035;-94
2023/09/03 12:24:42;;;;;;;1.02;0.93;;;32.30;1.00;;;;;;6187548;23;20029;-90
2023/09/03 12:27:29;;;;;;;3.22;0.95;;;31.50;1.00;;;;;;6188430;23;20381;-89
2023/09/03 12:30:16;;;;;;;1.42;0.82;;;30.90;1.00;;;;;;6191876;23;20056;-89
2023/09/03 12:33:04;;;;;;;1.83;1.05;;;30.20;1.00;;;;;;6189314;23;20029;-90
2023/09/03 12:36:14;;;;;;;4.35;1.02;;;29.50;1.00;;;;;;6170290;23;20036;-90
2023/09/03 12:39:04;;;;;;;2.75;1.00;;;28.80;1.00;;;;;;6170215;23;20053;-90
2023/09/03 12:41:52;;;;;;;1.75;0.90;;;29.60;1.00;;;;;;6189862;23;20025;-90
2023/09/03 12:44:42;;;;;;;0.98;0.80;;;30.80;1.00;;;;;;6166396;23;20028;-91
2023/09/03 12:47:32;;;;;;;1.13;1.00;;;31.40;1.00;;;;;;6168650;23;20079;-91
2023/09/03 12:50:20;;;;;;;0.95;0.73;;;32.50;1.00;;;;;;6194971;23;20025;-91
2023/09/03 12:53:07;;;;;;;1.60;0.80;;;32.60;1.00;;;;;;6168330;23;20025;-91
2023/09/03 12:55:56;;;;;;;1.48;0.90;;;31.60;1.00;;;;;;6173496;23;20025;-91
2023/09/03 12:58:46;;;;;;;1.75;0.77;;;30.30;1.00;;;;;;6195034;23;20021;-91
2023/09/03 13:01:37;;;;;;;2.88;0.70;;;30.00;1.00;;;;;;6180723;23;20025;-88
2023/09/03 13:04:25;;;;;;;3.30;1.00;;;29.90;1.00;;;;;;6193633;23;20029;-92
2023/09/03 13:07:12;;;;;;;2.75;1.13;;;29.30;1.00;;;;;;6193094;23;20021;-90
2023/09/03 13:09:59;;;;;;;1.75;0.95;;;29.50;1.00;;;;;;6172256;23;20025;-93
2023/09/03 13:12:49;;;;;;;1.88;1.13;;;29.80;1.00;;;;;;6168276;23;20049;-92
2023/09/03 13:15:36;;;;;;;1.17;0.90;;;29.90;1.00;;;;;;6168270;23;20044;-90
2023/09/03 13:18:24;;;;;;;0.80;0.80;;;30.20;1.00;;;;;;6167653;23;20100;-92
2023/09/03 13:21:12;;;;;;;3.10;1.27;;;30.40;1.00;;;;;;6192189;23;20024;-89
2023/09/03 13:23:59;;;;;;;1.85;1.13;;;29.80;1.00;;;;;;6188351;23;20036;-90
2023/09/03 13:26:50;;;;;;;1.38;1.13;;;30.10;1.00;;;;;;6192589;23;20028;-89
2023/09/03 13:29:38;;;;;;;1.33;1.07;;;30.10;1.00;;;;;;6167941;23;20361;-90
2023/09/03 13:32:25;;;;;;;1.45;1.17;;;30.30;1.00;;;;;;6169762;23;20028;-93
2023/09/03 13:35:13;;;;;;;1.55;1.10;;;30.30;1.00;;;;;;6168823;23;20064;-90
2023/09/03 13:38:04;;;;;;;1.00;0.90;;;29.70;1.00;;;;;;6190133;23;20143;-89
2023/09/03 13:40:56;;;;;;;1.05;0.80;;;29.00;1.00;;;;;;6190876;23;20021;-93
2023/09/03 13:43:47;;;;;;;1.98;1.25;;;28.20;1.00;;;;;;6170892;23;20424;-93
2023/09/03 13:46:34;;;;;;;1.38;1.00;;;28.20;1.00;;;;;;6191902;23;20276;-92
2023/09/03 13:49:29;;;;;;;5.53;1.35;;;27.90;1.00;;;;;;6171698;23;20036;-91
2023/09/03 13:52:16;;;;;;;2.75;1.05;;;28.20;1.00;;;;;;6167393;23;20487;-92
2023/09/03 13:55:04;;;;;;;1.02;0.70;;;28.40;1.00;;;;;;6168933;23;20056;-91
2023/09/03 13:57:56;;;;;;;3.83;1.23;;;28.40;1.00;;;;;;6168639;23;20029;-89
2023/09/03 14:00:43;;;;;;;4.05;1.17;;;28.20;1.00;;;;;;6168741;23;20024;-91
2023/09/03 14:03:30;;;;;;;1.65;0.85;;;28.00;1.00;;;;;;6172475;23;20032;-90
2023/09/03 14:06:19;;;;;;;1.35;0.82;;;28.30;1.00;;;;;;6190234;23;20048;-92
2023/09/03 14:09:07;;;;;;;10.18;4.38;;;28.60;1.00;;;;;;6170018;23;20033;-93
2023/09/03 14:11:54;;;;;;;1.92;0.90;;;28.30;1.00;;;;;;6189425;23;20039;-90
2023/09/03 14:14:41;;;;;;;0.93;0.63;;;28.20;1.00;;;;;;6170768;23;20021;-90
2023/09/03 14:17:29;;;;;;;2.03;0.80;;;28.00;1.00;;;;;;6171423;23;20096;-92
2023/09/03 14:20:17;;;;;;;3.05;0.93;;;27.90;1.00;;;;;;6189827;23;20495;-92
2023/09/03 14:23:04;;;;;;;3.85;1.95;;;28.00;1.00;;;;;;6170538;23;20024;-91
2023/09/03 14:25:55;;;;;;;0.70;0.70;;;28.40;1.00;;;;;;6189938;23;20029;-91
2023/09/03 14:28:56;;;;;;;1.02;0.77;;;28.90;1.00;;;;;;6185622;23;20159;-83
2023/09/03 14:31:50;;;;;;;1.63;0.70;;;29.50;1.00;;;;;;6184257;23;20025;-83
2023/09/03 14:34:41;;;;;;;1.65;0.90;;;29.50;1.00;;;;;;6183888;23;20029;-84
2023/09/03 14:37:31;;;;;;;1.98;0.90;;;29.30;1.00;;;;;;6161802;23;20025;-83
2023/09/03 14:40:18;;;;;;;2.17;0.88;;;29.20;1.00;;;;;;6163427;23;20343;-83
2023/09/03 14:43:08;;;;;;;4.55;2.47;;;28.40;1.00;;;;;;6178678;23;20056;-84
2023/09/03 14:46:01;;;;;;;2.72;1.10;;;27.90;1.00;;;;;;6179418;23;20039;-83
2023/09/03 14:48:48;;;;;;;1.65;1.10;;;27.40;1.00;;;;;;6178832;23;20112;-83
2023/09/03 14:51:37;;;;;;;2.97;1.95;;;27.30;1.00;;;;;;6202111;23;20032;-83
2023/09/03 14:54:27;;;;;;;1.50;1.00;;;27.50;1.00;;;;;;6189689;23;20025;-85
2023/09/03 14:57:16;;;;;;;9.68;2.78;;;27.60;1.00;;;;;;6197111;23;20092;-84